createdAt,value
2023-05-03T00:00:47.255Z,54.84
2023-05-03T00:05:49.913Z,54.89
2023-05-03T00:10:51.669Z,55.02
2023-05-03T00:15:53.423Z,55.12
2023-05-03T00:20:55.369Z,55.17
2023-05-03T00:25:58.754Z,55.34
2023-05-03T00:31:08.737Z,55.36
2023-05-03T00:36:13.034Z,55.24
2023-05-03T00:41:14.854Z,55.33
2023-05-03T00:46:18.112Z,55.31
2023-05-03T00:51:21.893Z,55.29
2023-05-03T00:56:23.890Z,55.36
2023-05-03T01:01:26.485Z,55.34
2023-05-03T01:06:48.434Z,55.45
2023-05-03T01:12:15.119Z,55.41
2023-05-03T01:17:26.034Z,55.34
2023-05-03T01:22:34.245Z,55.43
2023-05-03T01:27:37.273Z,55.50
2023-05-03T01:32:51.419Z,55.46
2023-05-03T01:37:57.614Z,55.52
2023-05-03T01:42:59.832Z,55.46
2023-05-03T01:48:01.834Z,55.38
2023-05-03T01:53:03.676Z,55.61
2023-05-03T01:58:06.320Z,55.55
2023-05-03T02:03:08.184Z,55.63
2023-05-03T02:08:10.079Z,55.53
2023-05-03T02:13:11.923Z,55.27
2023-05-03T02:18:14.510Z,55.43
2023-05-03T02:23:16.560Z,54.90
2023-05-03T02:28:18.393Z,54.77
2023-05-03T02:33:20.558Z,54.76
2023-05-03T02:38:23.622Z,54.49
2023-05-03T02:43:26.413Z,54.72
2023-05-03T02:48:28.401Z,54.52
2023-05-03T02:53:31.530Z,54.55
2023-05-03T02:58:37.254Z,54.46
2023-05-03T03:03:40.329Z,54.39
2023-05-03T03:08:43.687Z,54.45
2023-05-03T03:13:45.803Z,54.41
2023-05-03T03:18:47.569Z,54.40
2023-05-03T03:23:50.315Z,54.38
2023-05-03T03:28:52.146Z,54.47
2023-05-03T03:33:56.612Z,54.40
2023-05-03T03:39:02.404Z,54.34
2023-05-03T03:44:04.550Z,54.18
2023-05-03T03:49:06.423Z,54.12
2023-05-03T03:54:08.298Z,54.11
2023-05-03T03:59:13.577Z,53.88
2023-05-03T04:04:16.278Z,53.91
2023-05-03T04:09:19.844Z,54.00
2023-05-03T04:14:21.905Z,53.93
2023-05-03T04:19:26.262Z,54.01
2023-05-03T04:24:30.907Z,54.02
2023-05-03T04:29:33.595Z,54.02
2023-05-03T04:34:36.078Z,53.96
2023-05-03T04:39:39.711Z,54.02
2023-05-03T04:44:44.945Z,54.04
2023-05-03T04:49:48.376Z,53.90
2023-05-03T04:54:50.225Z,53.94
2023-05-03T04:59:54.253Z,53.70
2023-05-03T05:04:56.792Z,53.69
2023-05-03T05:09:59.101Z,53.60
2023-05-03T05:15:01.238Z,53.62
2023-05-03T05:20:07.172Z,53.45
2023-05-03T05:25:10.177Z,53.25
2023-05-03T05:30:13.023Z,53.30
2023-05-03T05:35:19.315Z,53.24
2023-05-03T05:40:21.928Z,53.17
2023-05-03T05:45:29.595Z,53.07
2023-05-03T05:50:32.838Z,52.60
2023-05-03T05:55:40.358Z,52.32
2023-05-03T06:00:43.253Z,52.14
2023-05-03T06:05:45.326Z,52.05
2023-05-03T06:10:47.454Z,52.09
2023-05-03T06:15:49.624Z,52.08
2023-05-03T06:20:51.532Z,52.09
2023-05-03T06:25:55.511Z,51.92
2023-05-03T06:30:58.526Z,51.88
2023-05-03T06:36:02.611Z,51.81
2023-05-03T06:41:04.587Z,51.80
2023-05-03T06:46:06.841Z,51.64
2023-05-03T06:51:08.902Z,51.53
2023-05-03T06:56:11.393Z,51.52
2023-05-03T07:01:13.414Z,51.45
2023-05-03T07:06:16.941Z,51.13
2023-05-03T07:11:24.076Z,50.83
2023-05-03T07:16:26.325Z,50.74
2023-05-03T07:21:29.500Z,50.65
2023-05-03T07:26:31.518Z,50.29
2023-05-03T07:31:33.557Z,50.10
2023-05-03T07:36:35.602Z,49.74
2023-05-03T07:41:37.726Z,49.34
2023-05-03T07:46:39.692Z,49.30
2023-05-03T07:51:41.970Z,49.04
2023-05-03T07:56:44.057Z,49.26
2023-05-03T08:01:45.937Z,49.12
2023-05-03T08:06:48.090Z,48.86
2023-05-03T08:11:50.102Z,48.70
2023-05-03T08:16:51.971Z,48.50
2023-05-03T08:21:54.704Z,48.98
2023-05-03T08:26:56.690Z,49.01
2023-05-03T08:31:59.239Z,48.42
2023-05-03T08:37:01.465Z,48.57
2023-05-03T08:42:07.698Z,48.58
2023-05-03T08:47:09.638Z,48.55
2023-05-03T08:52:14.415Z,48.02
2023-05-03T08:57:18.013Z,47.96
2023-05-03T09:02:21.712Z,47.74
2023-05-03T09:07:23.952Z,47.51
2023-05-03T09:12:41.566Z,47.03
2023-05-03T09:17:43.723Z,47.41
2023-05-03T09:22:54.483Z,47.18
2023-05-03T09:28:05.443Z,46.86
2023-05-03T09:33:08.262Z,46.90
2023-05-03T09:38:30.518Z,46.56
2023-05-03T09:43:35.232Z,46.80
2023-05-03T09:48:38.341Z,46.74
2023-05-03T09:53:41.957Z,46.35
2023-05-03T09:58:44.193Z,46.20
2023-05-03T10:03:51.213Z,45.50
2023-05-03T10:09:21.680Z,45.61
2023-05-03T10:14:24.484Z,45.36
2023-05-03T10:19:32.486Z,44.91
2023-05-03T10:24:36.292Z,44.21
2023-05-03T10:29:46.198Z,44.34
2023-05-03T10:34:48.042Z,44.76
2023-05-03T10:39:53.001Z,44.99
2023-05-03T10:44:55.517Z,44.98
2023-05-03T10:50:15.380Z,44.88
2023-05-03T10:55:24.739Z,44.63
2023-05-03T11:00:32.710Z,44.35
2023-05-03T11:05:34.930Z,44.52
2023-05-03T11:10:36.878Z,44.22
2023-05-03T11:15:39.323Z,44.17
2023-05-03T11:20:41.159Z,43.96
2023-05-03T11:25:43.040Z,43.97
2023-05-03T11:30:47.409Z,43.91
2023-05-03T11:35:49.378Z,43.75
2023-05-03T11:40:51.845Z,43.73
2023-05-03T11:45:58.456Z,43.53
2023-05-03T11:51:06.865Z,43.63
2023-05-03T11:56:14.346Z,43.73
2023-05-03T12:01:16.675Z,43.62
2023-05-03T12:06:19.265Z,43.12
2023-05-03T12:11:23.028Z,43.77
2023-05-03T12:16:27.965Z,43.79
2023-05-03T12:22:03.985Z,43.55
2023-05-03T12:27:09.463Z,43.55
2023-05-03T12:32:12.279Z,43.39
2023-05-03T12:37:17.196Z,43.47
2023-05-03T12:42:22.017Z,43.16
2023-05-03T12:47:28.785Z,43.08
2023-05-03T12:52:37.720Z,43.54
2023-05-03T12:57:42.837Z,43.37
2023-05-03T13:07:56.564Z,42.77
2023-05-03T13:12:58.972Z,43.23
2023-05-03T13:18:03.345Z,42.88
2023-05-03T13:23:05.530Z,42.74
2023-05-03T13:28:07.324Z,42.81
2023-05-03T13:33:09.353Z,42.98
2023-05-03T13:38:11.179Z,42.99
2023-05-03T13:43:12.964Z,42.82
2023-05-03T13:48:19.203Z,42.87
2023-05-03T13:53:21.497Z,43.08
2023-05-03T13:58:23.387Z,42.93
2023-05-03T14:03:25.497Z,42.71
2023-05-03T14:08:27.610Z,42.37
2023-05-03T14:13:34.834Z,42.55
2023-05-03T14:18:42.727Z,42.45
2023-05-03T14:23:49.924Z,41.80
2023-05-03T14:28:51.864Z,41.71
2023-05-03T14:33:53.958Z,41.45
2023-05-03T14:38:55.905Z,41.79
2023-05-03T14:43:57.871Z,41.68
2023-05-03T14:49:01.726Z,41.57
2023-05-03T14:54:04.156Z,41.46
2023-05-03T14:59:07.520Z,41.10
2023-05-03T15:04:10.832Z,41.24
2023-05-03T15:09:13.304Z,41.29
2023-05-03T15:14:15.144Z,41.44
2023-05-03T15:19:17.022Z,41.66
2023-05-03T15:24:19.042Z,41.53
2023-05-03T15:29:21.758Z,41.45
2023-05-03T15:34:23.666Z,41.28
2023-05-03T15:39:25.615Z,41.39
2023-05-03T15:44:27.460Z,41.31
2023-05-03T15:49:29.481Z,41.18
2023-05-03T15:54:31.326Z,41.19
2023-05-03T15:59:33.176Z,41.42
2023-05-03T16:04:37.412Z,41.51
2023-05-03T16:09:39.321Z,41.46
2023-05-03T16:14:41.382Z,41.41
2023-05-03T16:19:44.082Z,41.46
2023-05-03T16:24:47.284Z,41.15
2023-05-03T16:29:49.300Z,41.37
2023-05-03T16:34:52.050Z,41.23
2023-05-03T16:39:53.877Z,41.47
2023-05-03T16:44:55.902Z,41.37
2023-05-03T16:49:57.789Z,41.54
2023-05-03T16:54:59.601Z,41.69
2023-05-03T17:00:09.787Z,41.71
2023-05-03T17:05:13.176Z,41.74
2023-05-03T17:10:15.074Z,41.81
2023-05-03T17:15:17.122Z,41.77
2023-05-03T17:20:19.466Z,41.91
2023-05-03T17:25:21.516Z,41.90
2023-05-03T17:30:23.863Z,41.91
2023-05-03T17:35:26.117Z,41.97
2023-05-03T17:40:27.926Z,42.06
2023-05-03T17:45:29.738Z,42.37
2023-05-03T17:50:31.455Z,42.40
2023-05-03T17:55:40.432Z,42.63
2023-05-03T18:00:43.250Z,42.40
2023-05-03T18:05:45.763Z,42.72
2023-05-03T18:10:47.618Z,42.77
2023-05-03T18:15:50.102Z,42.98
2023-05-03T18:21:02.318Z,43.30
2023-05-03T18:26:04.247Z,43.34
2023-05-03T18:31:07.271Z,43.44
2023-05-03T18:36:11.578Z,43.82
2023-05-03T18:41:14.980Z,44.01
2023-05-03T18:46:18.805Z,44.08
2023-05-03T18:51:20.789Z,44.32
2023-05-03T18:56:22.595Z,44.53
2023-05-03T19:01:26.576Z,44.43
2023-05-03T19:06:28.875Z,44.75
2023-05-03T19:11:30.852Z,44.87
2023-05-03T19:16:33.495Z,44.92
2023-05-03T19:21:37.851Z,44.95
2023-05-03T19:26:39.930Z,45.08
2023-05-03T19:31:41.846Z,45.19
2023-05-03T19:36:43.640Z,45.10
2023-05-03T19:41:47.246Z,45.10
2023-05-03T19:46:50.010Z,45.06
2023-05-03T19:51:54.040Z,45.12
2023-05-03T19:56:55.801Z,45.20
2023-05-03T20:01:57.902Z,45.21
2023-05-03T20:06:59.828Z,45.24
2023-05-03T20:12:02.289Z,45.26
2023-05-03T20:17:04.388Z,45.24
2023-05-03T20:22:06.580Z,45.20
2023-05-03T20:27:08.446Z,45.36
2023-05-03T20:32:10.294Z,45.37
2023-05-03T20:37:12.331Z,45.42
2023-05-03T20:42:14.193Z,45.51
2023-05-03T20:47:16.071Z,45.54
2023-05-03T20:52:17.926Z,45.63
2023-05-03T20:57:19.790Z,45.71
2023-05-03T21:02:21.564Z,45.74
2023-05-03T21:07:23.448Z,45.74
2023-05-03T21:12:25.947Z,45.86
2023-05-03T21:17:27.812Z,45.93
2023-05-03T21:22:30.142Z,46.03
2023-05-03T21:27:32.161Z,46.06
2023-05-03T21:32:34.192Z,46.12
2023-05-03T21:37:36.060Z,46.16
2023-05-03T21:42:37.911Z,46.45
2023-05-03T21:47:39.805Z,46.58
2023-05-03T21:52:42.136Z,46.77
2023-05-03T21:57:44.140Z,46.94
2023-05-03T22:02:46.059Z,46.91
2023-05-03T22:07:48.652Z,47.02
2023-05-03T22:12:50.581Z,47.07
2023-05-03T22:17:52.454Z,47.14
2023-05-03T22:22:54.319Z,47.30
2023-05-03T22:27:56.126Z,47.24
2023-05-03T22:32:57.974Z,47.40
2023-05-03T22:38:00.186Z,47.41
2023-05-03T22:43:02.041Z,47.41
2023-05-03T22:48:04.629Z,47.41
2023-05-03T22:53:06.528Z,47.56
2023-05-03T22:58:08.543Z,47.48
2023-05-03T23:03:10.941Z,47.55
2023-05-03T23:08:14.239Z,47.59
2023-05-03T23:13:16.767Z,47.68
2023-05-03T23:18:18.962Z,47.71
2023-05-03T23:23:20.835Z,47.82
2023-05-03T23:28:22.874Z,47.89
2023-05-03T23:33:25.147Z,47.93
2023-05-03T23:38:27.767Z,47.93
2023-05-03T23:43:29.538Z,48.01
2023-05-03T23:48:31.748Z,48.19
2023-05-03T23:53:33.493Z,48.00
2023-05-03T23:58:35.377Z,48.16
